sensor_id;sensor_type;location;lat;lon;timestamp;temperature;humidity
70820;DHT22;58439;51.046;13.692;2023-05-21T00:00:31;13.60;99.90
70820;DHT22;58439;51.046;13.692;2023-05-21T00:02:58;13.60;99.90
70820;DHT22;58439;51.046;13.692;2023-05-21T00:05:26;13.60;99.90
70820;DHT22;58439;51.046;13.692;2023-05-21T00:07:53;13.50;99.90
70820;DHT22;58439;51.046;13.692;2023-05-21T00:10:20;13.50;99.90
70820;DHT22;58439;51.046;13.692;2023-05-21T00:12:48;13.50;99.90
70820;DHT22;58439;51.046;13.692;2023-05-21T00:15:16;13.50;99.90
70820;DHT22;58439;51.046;13.692;2023-05-21T00:17:43;13.50;99.90
70820;DHT22;58439;51.046;13.692;2023-05-21T00:20:12;13.60;99.90
70820;DHT22;58439;51.046;13.692;2023-05-21T00:22:39;13.60;99.90
70820;DHT22;58439;51.046;13.692;2023-05-21T00:25:09;13.60;99.90
70820;DHT22;58439;51.046;13.692;2023-05-21T00:27:37;13.60;99.90
70820;DHT22;58439;51.046;13.692;2023-05-21T00:30:05;13.50;99.90
70820;DHT22;58439;51.046;13.692;2023-05-21T00:32:33;13.50;99.90
70820;DHT22;58439;51.046;13.692;2023-05-21T00:35:00;13.40;99.90
70820;DHT22;58439;51.046;13.692;2023-05-21T00:37:29;13.30;99.90
70820;DHT22;58439;51.046;13.692;2023-05-21T00:40:04;13.30;99.90
70820;DHT22;58439;51.046;13.692;2023-05-21T00:42:33;13.20;99.90
70820;DHT22;58439;51.046;13.692;2023-05-21T00:45:07;13.20;99.90
70820;DHT22;58439;51.046;13.692;2023-05-21T00:47:35;13.20;99.90
70820;DHT22;58439;51.046;13.692;2023-05-21T00:50:03;13.20;99.90
70820;DHT22;58439;51.046;13.692;2023-05-21T00:52:32;13.20;99.90
70820;DHT22;58439;51.046;13.692;2023-05-21T00:55:15;13.10;99.90
70820;DHT22;58439;51.046;13.692;2023-05-21T00:57:43;13.10;99.90
70820;DHT22;58439;51.046;13.692;2023-05-21T01:00:15;13.10;99.90
70820;DHT22;58439;51.046;13.692;2023-05-21T01:02:43;13.10;99.90
70820;DHT22;58439;51.046;13.692;2023-05-21T01:05:11;13.00;99.90
70820;DHT22;58439;51.046;13.692;2023-05-21T01:07:39;13.00;99.90
70820;DHT22;58439;51.046;13.692;2023-05-21T01:10:08;13.00;99.90
70820;DHT22;58439;51.046;13.692;2023-05-21T01:12:39;12.90;99.90
70820;DHT22;58439;51.046;13.692;2023-05-21T01:15:10;13.00;99.90
70820;DHT22;58439;51.046;13.692;2023-05-21T01:17:38;12.90;99.90
70820;DHT22;58439;51.046;13.692;2023-05-21T01:20:07;12.90;99.90
70820;DHT22;58439;51.046;13.692;2023-05-21T01:22:41;13.00;99.90
70820;DHT22;58439;51.046;13.692;2023-05-21T01:25:16;13.00;99.90
70820;DHT22;58439;51.046;13.692;2023-05-21T01:27:44;13.00;99.90
70820;DHT22;58439;51.046;13.692;2023-05-21T01:30:12;12.90;99.90
70820;DHT22;58439;51.046;13.692;2023-05-21T01:32:54;12.90;99.90
70820;DHT22;58439;51.046;13.692;2023-05-21T01:36:15;12.90;99.90
70820;DHT22;58439;51.046;13.692;2023-05-21T01:38:56;12.90;99.90
70820;DHT22;58439;51.046;13.692;2023-05-21T01:41:37;12.90;99.90
70820;DHT22;58439;51.046;13.692;2023-05-21T01:44:08;12.90;99.90
70820;DHT22;58439;51.046;13.692;2023-05-21T01:46:40;12.90;99.90
70820;DHT22;58439;51.046;13.692;2023-05-21T01:49:07;12.90;99.90
70820;DHT22;58439;51.046;13.692;2023-05-21T01:51:35;12.90;99.90
70820;DHT22;58439;51.046;13.692;2023-05-21T01:54:03;13.00;99.90
70820;DHT22;58439;51.046;13.692;2023-05-21T01:56:30;13.00;99.90
70820;DHT22;58439;51.046;13.692;2023-05-21T01:58:59;13.00;99.90
70820;DHT22;58439;51.046;13.692;2023-05-21T02:01:27;12.90;99.90
70820;DHT22;58439;51.046;13.692;2023-05-21T02:04:22;12.90;99.90
70820;DHT22;58439;51.046;13.692;2023-05-21T02:07:29;12.90;99.90
70820;DHT22;58439;51.046;13.692;2023-05-21T02:13:56;12.80;99.90
70820;DHT22;58439;51.046;13.692;2023-05-21T02:17:01;12.70;99.90
70820;DHT22;58439;51.046;13.692;2023-05-21T02:20:24;12.70;99.90
70820;DHT22;58439;51.046;13.692;2023-05-21T02:23:12;12.70;99.90
70820;DHT22;58439;51.046;13.692;2023-05-21T02:27:19;12.70;99.90
70820;DHT22;58439;51.046;13.692;2023-05-21T02:36:00;12.60;99.90
70820;DHT22;58439;51.046;13.692;2023-05-21T02:39:43;12.60;99.90
70820;DHT22;58439;51.046;13.692;2023-05-21T02:43:56;12.60;99.90
70820;DHT22;58439;51.046;13.692;2023-05-21T02:48:01;12.40;99.90
70820;DHT22;58439;51.046;13.692;2023-05-21T02:51:22;12.40;99.90
70820;DHT22;58439;51.046;13.692;2023-05-21T03:07:25;12.20;99.90
70820;DHT22;58439;51.046;13.692;2023-05-21T03:09:56;12.20;99.90
70820;DHT22;58439;51.046;13.692;2023-05-21T03:12:23;12.20;99.90
70820;DHT22;58439;51.046;13.692;2023-05-21T03:14:50;12.20;99.90
70820;DHT22;58439;51.046;13.692;2023-05-21T03:17:19;12.20;99.90
70820;DHT22;58439;51.046;13.692;2023-05-21T03:19:48;12.10;99.90
70820;DHT22;58439;51.046;13.692;2023-05-21T03:22:15;12.20;99.90
70820;DHT22;58439;51.046;13.692;2023-05-21T03:24:42;12.20;99.90
70820;DHT22;58439;51.046;13.692;2023-05-21T03:27:11;12.20;99.90
70820;DHT22;58439;51.046;13.692;2023-05-21T03:29:38;12.20;99.90
70820;DHT22;58439;51.046;13.692;2023-05-21T03:32:07;12.10;99.90
70820;DHT22;58439;51.046;13.692;2023-05-21T03:34:34;12.10;99.90
70820;DHT22;58439;51.046;13.692;2023-05-21T03:37:02;12.10;99.90
70820;DHT22;58439;51.046;13.692;2023-05-21T03:39:49;12.20;99.90
70820;DHT22;58439;51.046;13.692;2023-05-21T03:47:09;12.30;99.90
70820;DHT22;58439;51.046;13.692;2023-05-21T03:54:34;12.40;99.90
70820;DHT22;58439;51.046;13.692;2023-05-21T03:57:36;12.40;99.90
70820;DHT22;58439;51.046;13.692;2023-05-21T04:10:36;12.60;99.90
70820;DHT22;58439;51.046;13.692;2023-05-21T04:14:03;12.70;99.90
70820;DHT22;58439;51.046;13.692;2023-05-21T04:21:05;12.90;99.90
70820;DHT22;58439;51.046;13.692;2023-05-21T04:35:16;13.30;99.90
70820;DHT22;58439;51.046;13.692;2023-05-21T04:43:14;13.60;99.90
70820;DHT22;58439;51.046;13.692;2023-05-21T04:47:01;13.80;99.90
70820;DHT22;58439;51.046;13.692;2023-05-21T04:49:46;14.00;99.90
70820;DHT22;58439;51.046;13.692;2023-05-21T04:57:16;14.40;99.90
70820;DHT22;58439;51.046;13.692;2023-05-21T05:01:04;14.70;99.90
70820;DHT22;58439;51.046;13.692;2023-05-21T05:05:05;15.00;99.90
70820;DHT22;58439;51.046;13.692;2023-05-21T05:12:10;15.50;99.90
70820;DHT22;58439;51.046;13.692;2023-05-21T05:14:37;15.70;99.90
70820;DHT22;58439;51.046;13.692;2023-05-21T05:17:12;15.90;99.90
70820;DHT22;58439;51.046;13.692;2023-05-21T05:19:42;16.10;99.90
70820;DHT22;58439;51.046;13.692;2023-05-21T05:22:09;16.40;99.90
70820;DHT22;58439;51.046;13.692;2023-05-21T05:24:40;16.50;99.90
70820;DHT22;58439;51.046;13.692;2023-05-21T05:27:08;16.60;99.90
70820;DHT22;58439;51.046;13.692;2023-05-21T05:29:35;16.70;99.90
70820;DHT22;58439;51.046;13.692;2023-05-21T05:32:03;16.90;99.90
70820;DHT22;58439;51.046;13.692;2023-05-21T05:34:31;17.00;99.90
70820;DHT22;58439;51.046;13.692;2023-05-21T05:36:58;17.10;99.90
70820;DHT22;58439;51.046;13.692;2023-05-21T05:39:26;17.20;99.90
70820;DHT22;58439;51.046;13.692;2023-05-21T05:41:53;17.30;99.90
70820;DHT22;58439;51.046;13.692;2023-05-21T05:44:23;17.40;99.90
70820;DHT22;58439;51.046;13.692;2023-05-21T05:46:50;17.60;99.90
70820;DHT22;58439;51.046;13.692;2023-05-21T05:49:18;17.70;99.30
70820;DHT22;58439;51.046;13.692;2023-05-21T05:51:45;17.80;99.30
70820;DHT22;58439;51.046;13.692;2023-05-21T05:54:12;18.00;99.00
70820;DHT22;58439;51.046;13.692;2023-05-21T05:56:39;18.30;98.70
70820;DHT22;58439;51.046;13.692;2023-05-21T05:59:07;18.40;97.20
70820;DHT22;58439;51.046;13.692;2023-05-21T06:01:36;18.60;96.20
70820;DHT22;58439;51.046;13.692;2023-05-21T06:04:05;18.70;95.90
70820;DHT22;58439;51.046;13.692;2023-05-21T06:06:32;18.80;96.00
70820;DHT22;58439;51.046;13.692;2023-05-21T06:09:00;19.00;95.90
70820;DHT22;58439;51.046;13.692;2023-05-21T06:11:28;19.10;95.50
70820;DHT22;58439;51.046;13.692;2023-05-21T06:13:55;19.30;94.80
70820;DHT22;58439;51.046;13.692;2023-05-21T06:16:22;19.40;94.70
70820;DHT22;58439;51.046;13.692;2023-05-21T06:18:49;19.40;93.80
70820;DHT22;58439;51.046;13.692;2023-05-21T06:21:20;19.50;94.20
70820;DHT22;58439;51.046;13.692;2023-05-21T06:23:47;19.50;94.10
70820;DHT22;58439;51.046;13.692;2023-05-21T06:26:14;19.60;94.10
70820;DHT22;58439;51.046;13.692;2023-05-21T06:28:42;19.60;94.10
70820;DHT22;58439;51.046;13.692;2023-05-21T06:31:09;19.70;93.90
70820;DHT22;58439;51.046;13.692;2023-05-21T06:33:38;19.70;93.60
70820;DHT22;58439;51.046;13.692;2023-05-21T06:36:06;19.70;93.40
70820;DHT22;58439;51.046;13.692;2023-05-21T06:38:33;19.70;93.80
70820;DHT22;58439;51.046;13.692;2023-05-21T06:41:01;19.70;93.40
70820;DHT22;58439;51.046;13.692;2023-05-21T06:44:00;19.70;93.50
70820;DHT22;58439;51.046;13.692;2023-05-21T06:46:57;19.70;93.50
70820;DHT22;58439;51.046;13.692;2023-05-21T06:49:25;19.80;93.30
70820;DHT22;58439;51.046;13.692;2023-05-21T06:51:53;19.80;93.20
70820;DHT22;58439;51.046;13.692;2023-05-21T06:54:23;19.80;93.10
70820;DHT22;58439;51.046;13.692;2023-05-21T06:56:52;19.90;93.10
70820;DHT22;58439;51.046;13.692;2023-05-21T06:59:20;19.90;93.00
70820;DHT22;58439;51.046;13.692;2023-05-21T07:01:47;19.90;93.20
70820;DHT22;58439;51.046;13.692;2023-05-21T07:04:14;19.90;93.00
70820;DHT22;58439;51.046;13.692;2023-05-21T07:06:43;19.90;93.10
70820;DHT22;58439;51.046;13.692;2023-05-21T07:09:10;19.90;93.10
70820;DHT22;58439;51.046;13.692;2023-05-21T07:11:38;19.90;93.10
70820;DHT22;58439;51.046;13.692;2023-05-21T07:14:07;20.00;93.20
70820;DHT22;58439;51.046;13.692;2023-05-21T07:16:35;19.90;93.20
70820;DHT22;58439;51.046;13.692;2023-05-21T07:19:03;20.00;93.30
70820;DHT22;58439;51.046;13.692;2023-05-21T07:21:35;20.00;93.30
70820;DHT22;58439;51.046;13.692;2023-05-21T07:24:05;20.10;93.20
70820;DHT22;58439;51.046;13.692;2023-05-21T07:26:32;20.10;93.00
70820;DHT22;58439;51.046;13.692;2023-05-21T07:28:59;20.20;92.90
70820;DHT22;58439;51.046;13.692;2023-05-21T07:31:27;20.30;92.80
70820;DHT22;58439;51.046;13.692;2023-05-21T07:33:54;20.40;92.60
70820;DHT22;58439;51.046;13.692;2023-05-21T07:36:26;20.50;92.50
70820;DHT22;58439;51.046;13.692;2023-05-21T07:38:53;20.60;91.90
70820;DHT22;58439;51.046;13.692;2023-05-21T07:41:22;20.70;91.80
70820;DHT22;58439;51.046;13.692;2023-05-21T07:44:12;20.80;91.50
70820;DHT22;58439;51.046;13.692;2023-05-21T07:46:41;21.00;91.30
70820;DHT22;58439;51.046;13.692;2023-05-21T07:49:10;21.10;91.00
70820;DHT22;58439;51.046;13.692;2023-05-21T07:51:43;21.20;90.60
70820;DHT22;58439;51.046;13.692;2023-05-21T07:54:11;21.30;90.10
70820;DHT22;58439;51.046;13.692;2023-05-21T07:56:40;21.30;90.10
70820;DHT22;58439;51.046;13.692;2023-05-21T07:59:13;21.40;90.00
70820;DHT22;58439;51.046;13.692;2023-05-21T08:01:43;21.50;89.90
70820;DHT22;58439;51.046;13.692;2023-05-21T08:04:11;21.50;89.20
70820;DHT22;58439;51.046;13.692;2023-05-21T08:40:18;22.50;83.50
70820;DHT22;58439;51.046;13.692;2023-05-21T08:52:24;23.00;76.20
70820;DHT22;58439;51.046;13.692;2023-05-21T08:54:54;23.20;75.00
70820;DHT22;58439;51.046;13.692;2023-05-21T08:57:54;23.30;73.50
70820;DHT22;58439;51.046;13.692;2023-05-21T09:00:24;23.40;71.70
70820;DHT22;58439;51.046;13.692;2023-05-21T09:02:54;23.50;69.50
70820;DHT22;58439;51.046;13.692;2023-05-21T09:05:48;23.50;67.20
70820;DHT22;58439;51.046;13.692;2023-05-21T09:08:56;23.50;66.50
70820;DHT22;58439;51.046;13.692;2023-05-21T09:12:56;23.60;66.20
70820;DHT22;58439;51.046;13.692;2023-05-21T09:15:43;23.90;62.90
70820;DHT22;58439;51.046;13.692;2023-05-21T09:23:23;24.10;60.60
70820;DHT22;58439;51.046;13.692;2023-05-21T09:27:46;24.30;57.80
70820;DHT22;58439;51.046;13.692;2023-05-21T09:38:16;24.90;53.60
70820;DHT22;58439;51.046;13.692;2023-05-21T09:41:41;25.00;52.20
70820;DHT22;58439;51.046;13.692;2023-05-21T10:18:33;26.20;42.70
70820;DHT22;58439;51.046;13.692;2023-05-21T10:48:27;27.30;36.90
70820;DHT22;58439;51.046;13.692;2023-05-21T10:51:27;27.30;36.50
70820;DHT22;58439;51.046;13.692;2023-05-21T10:54:34;27.40;35.60
70820;DHT22;58439;51.046;13.692;2023-05-21T11:00:44;28.00;36.20
70820;DHT22;58439;51.046;13.692;2023-05-21T11:03:46;28.60;35.70
70820;DHT22;58439;51.046;13.692;2023-05-21T11:06:53;28.90;34.90
70820;DHT22;58439;51.046;13.692;2023-05-21T11:09:25;29.50;33.20
70820;DHT22;58439;51.046;13.692;2023-05-21T11:11:58;29.80;30.30
70820;DHT22;58439;51.046;13.692;2023-05-21T11:14:31;29.80;30.00
70820;DHT22;58439;51.046;13.692;2023-05-21T11:20:12;30.10;28.50
70820;DHT22;58439;51.046;13.692;2023-05-21T11:22:43;30.30;28.40
70820;DHT22;58439;51.046;13.692;2023-05-21T11:25:14;30.70;27.90
70820;DHT22;58439;51.046;13.692;2023-05-21T11:27:41;30.90;27.30
70820;DHT22;58439;51.046;13.692;2023-05-21T11:30:19;31.00;27.40
70820;DHT22;58439;51.046;13.692;2023-05-21T11:33:46;31.20;27.10
70820;DHT22;58439;51.046;13.692;2023-05-21T11:36:13;31.60;26.40
70820;DHT22;58439;51.046;13.692;2023-05-21T11:38:41;31.70;26.20
70820;DHT22;58439;51.046;13.692;2023-05-21T11:41:08;31.80;26.20
70820;DHT22;58439;51.046;13.692;2023-05-21T11:43:39;32.10;25.50
70820;DHT22;58439;51.046;13.692;2023-05-21T11:46:08;32.30;25.30
70820;DHT22;58439;51.046;13.692;2023-05-21T11:48:38;32.60;25.00
70820;DHT22;58439;51.046;13.692;2023-05-21T11:51:06;32.90;24.90
70820;DHT22;58439;51.046;13.692;2023-05-21T11:53:34;33.10;24.50
70820;DHT22;58439;51.046;13.692;2023-05-21T11:56:05;33.30;24.30
70820;DHT22;58439;51.046;13.692;2023-05-21T11:58:35;33.40;24.00
70820;DHT22;58439;51.046;13.692;2023-05-21T12:01:02;33.50;23.90
70820;DHT22;58439;51.046;13.692;2023-05-21T12:04:03;33.50;23.80
70820;DHT22;58439;51.046;13.692;2023-05-21T12:07:44;33.80;23.50
70820;DHT22;58439;51.046;13.692;2023-05-21T12:10:58;34.20;22.70
70820;DHT22;58439;51.046;13.692;2023-05-21T12:13:27;33.80;22.20
70820;DHT22;58439;51.046;13.692;2023-05-21T12:15:54;33.20;22.90
70820;DHT22;58439;51.046;13.692;2023-05-21T12:18:21;32.90;23.10
70820;DHT22;58439;51.046;13.692;2023-05-21T12:20:50;32.90;23.30
70820;DHT22;58439;51.046;13.692;2023-05-21T12:23:24;33.10;23.90
70820;DHT22;58439;51.046;13.692;2023-05-21T12:25:52;33.20;24.40
70820;DHT22;58439;51.046;13.692;2023-05-21T12:28:40;33.00;24.50
70820;DHT22;58439;51.046;13.692;2023-05-21T12:31:14;32.80;24.80
70820;DHT22;58439;51.046;13.692;2023-05-21T12:33:50;32.20;25.10
70820;DHT22;58439;51.046;13.692;2023-05-21T12:36:24;31.40;26.30
70820;DHT22;58439;51.046;13.692;2023-05-21T12:38:53;30.70;27.40
70820;DHT22;58439;51.046;13.692;2023-05-21T12:41:22;30.10;28.30
70820;DHT22;58439;51.046;13.692;2023-05-21T12:43:50;29.50;29.10
70820;DHT22;58439;51.046;13.692;2023-05-21T12:46:17;29.50;29.50
70820;DHT22;58439;51.046;13.692;2023-05-21T12:48:52;30.30;28.80
70820;DHT22;58439;51.046;13.692;2023-05-21T12:51:20;31.30;27.70
70820;DHT22;58439;51.046;13.692;2023-05-21T12:53:48;31.90;27.00
70820;DHT22;58439;51.046;13.692;2023-05-21T12:56:15;32.40;25.90
70820;DHT22;58439;51.046;13.692;2023-05-21T12:58:48;32.20;25.80
70820;DHT22;58439;51.046;13.692;2023-05-21T13:01:16;31.50;26.80
70820;DHT22;58439;51.046;13.692;2023-05-21T13:03:46;30.60;27.10
70820;DHT22;58439;51.046;13.692;2023-05-21T13:06:13;29.90;28.00
70820;DHT22;58439;51.046;13.692;2023-05-21T13:08:40;29.50;28.70
70820;DHT22;58439;51.046;13.692;2023-05-21T13:11:08;30.20;29.20
70820;DHT22;58439;51.046;13.692;2023-05-21T13:13:35;31.20;26.80
70820;DHT22;58439;51.046;13.692;2023-05-21T13:16:02;32.30;26.20
70820;DHT22;58439;51.046;13.692;2023-05-21T13:19:10;33.40;25.10
70820;DHT22;58439;51.046;13.692;2023-05-21T13:21:50;33.80;24.30
70820;DHT22;58439;51.046;13.692;2023-05-21T13:24:18;32.90;25.40
70820;DHT22;58439;51.046;13.692;2023-05-21T13:26:45;32.10;26.60
70820;DHT22;58439;51.046;13.692;2023-05-21T13:29:12;31.90;27.20
70820;DHT22;58439;51.046;13.692;2023-05-21T13:31:43;32.50;26.90
70820;DHT22;58439;51.046;13.692;2023-05-21T13:34:23;33.50;26.20
70820;DHT22;58439;51.046;13.692;2023-05-21T13:36:51;34.00;25.50
70820;DHT22;58439;51.046;13.692;2023-05-21T13:39:18;33.90;24.90
70820;DHT22;58439;51.046;13.692;2023-05-21T13:41:52;33.40;25.60
70820;DHT22;58439;51.046;13.692;2023-05-21T13:44:19;33.60;25.70
70820;DHT22;58439;51.046;13.692;2023-05-21T13:46:47;33.80;25.30
70820;DHT22;58439;51.046;13.692;2023-05-21T13:49:14;34.00;26.00
70820;DHT22;58439;51.046;13.692;2023-05-21T13:51:42;33.60;25.90
70820;DHT22;58439;51.046;13.692;2023-05-21T13:54:09;32.50;26.60
70820;DHT22;58439;51.046;13.692;2023-05-21T13:56:36;31.60;27.70
70820;DHT22;58439;51.046;13.692;2023-05-21T13:59:04;31.40;28.50
70820;DHT22;58439;51.046;13.692;2023-05-21T14:01:35;31.40;28.40
70820;DHT22;58439;51.046;13.692;2023-05-21T14:04:02;31.00;29.10
70820;DHT22;58439;51.046;13.692;2023-05-21T14:06:32;30.40;30.00
70820;DHT22;58439;51.046;13.692;2023-05-21T14:09:25;30.20;30.40
70820;DHT22;58439;51.046;13.692;2023-05-21T14:12:14;30.20;28.30
70820;DHT22;58439;51.046;13.692;2023-05-21T14:14:41;30.00;27.80
70820;DHT22;58439;51.046;13.692;2023-05-21T14:17:09;30.50;26.70
70820;DHT22;58439;51.046;13.692;2023-05-21T14:19:36;31.20;25.90
70820;DHT22;58439;51.046;13.692;2023-05-21T14:22:03;32.00;25.20
70820;DHT22;58439;51.046;13.692;2023-05-21T14:24:31;32.70;24.60
70820;DHT22;58439;51.046;13.692;2023-05-21T14:26:58;32.90;24.60
70820;DHT22;58439;51.046;13.692;2023-05-21T14:29:26;33.30;24.40
70820;DHT22;58439;51.046;13.692;2023-05-21T14:31:53;33.50;24.10
70820;DHT22;58439;51.046;13.692;2023-05-21T14:34:21;33.70;24.00
70820;DHT22;58439;51.046;13.692;2023-05-21T14:36:48;33.60;23.70
70820;DHT22;58439;51.046;13.692;2023-05-21T14:39:21;33.60;23.70
70820;DHT22;58439;51.046;13.692;2023-05-21T14:42:12;33.60;23.60
70820;DHT22;58439;51.046;13.692;2023-05-21T14:44:40;33.70;23.40
70820;DHT22;58439;51.046;13.692;2023-05-21T14:47:07;33.60;23.30
70820;DHT22;58439;51.046;13.692;2023-05-21T14:53:09;33.60;23.20
70820;DHT22;58439;51.046;13.692;2023-05-21T14:55:38;33.60;22.50
70820;DHT22;58439;51.046;13.692;2023-05-21T14:58:06;33.40;22.60
70820;DHT22;58439;51.046;13.692;2023-05-21T15:01:17;33.00;23.00
70820;DHT22;58439;51.046;13.692;2023-05-21T15:03:59;32.30;23.40
70820;DHT22;58439;51.046;13.692;2023-05-21T15:07:08;31.50;23.80
70820;DHT22;58439;51.046;13.692;2023-05-21T15:10:39;31.10;24.70
70820;DHT22;58439;51.046;13.692;2023-05-21T15:13:08;31.00;25.20
70820;DHT22;58439;51.046;13.692;2023-05-21T15:15:36;30.80;25.80
70820;DHT22;58439;51.046;13.692;2023-05-21T15:18:03;30.70;26.20
70820;DHT22;58439;51.046;13.692;2023-05-21T15:20:31;30.90;26.30
70820;DHT22;58439;51.046;13.692;2023-05-21T15:22:58;31.20;26.30
70820;DHT22;58439;51.046;13.692;2023-05-21T15:25:30;31.40;26.00
70820;DHT22;58439;51.046;13.692;2023-05-21T15:27:57;31.30;26.20
70820;DHT22;58439;51.046;13.692;2023-05-21T15:30:25;31.20;26.70
70820;DHT22;58439;51.046;13.692;2023-05-21T15:32:53;31.00;27.00
70820;DHT22;58439;51.046;13.692;2023-05-21T15:35:21;31.10;27.30
70820;DHT22;58439;51.046;13.692;2023-05-21T15:37:48;31.20;27.30
70820;DHT22;58439;51.046;13.692;2023-05-21T15:40:16;31.50;27.00
70820;DHT22;58439;51.046;13.692;2023-05-21T15:42:44;31.60;26.60
70820;DHT22;58439;51.046;13.692;2023-05-21T15:45:11;31.50;26.50
70820;DHT22;58439;51.046;13.692;2023-05-21T15:47:39;31.30;26.10
70820;DHT22;58439;51.046;13.692;2023-05-21T15:50:09;31.00;27.00
70820;DHT22;58439;51.046;13.692;2023-05-21T15:52:37;30.60;26.30
70820;DHT22;58439;51.046;13.692;2023-05-21T15:55:04;30.40;26.70
70820;DHT22;58439;51.046;13.692;2023-05-21T15:57:32;30.20;26.50
70820;DHT22;58439;51.046;13.692;2023-05-21T16:00:00;30.20;26.50
70820;DHT22;58439;51.046;13.692;2023-05-21T16:02:27;30.20;26.60
70820;DHT22;58439;51.046;13.692;2023-05-21T16:04:54;30.30;26.50
70820;DHT22;58439;51.046;13.692;2023-05-21T16:07:48;30.50;26.20
70820;DHT22;58439;51.046;13.692;2023-05-21T16:10:26;30.70;26.20
70820;DHT22;58439;51.046;13.692;2023-05-21T16:12:56;30.90;25.90
70820;DHT22;58439;51.046;13.692;2023-05-21T16:15:23;31.00;25.20
70820;DHT22;58439;51.046;13.692;2023-05-21T16:17:50;31.20;25.20
70820;DHT22;58439;51.046;13.692;2023-05-21T16:20:18;31.50;25.20
70820;DHT22;58439;51.046;13.692;2023-05-21T16:22:47;31.80;24.80
70820;DHT22;58439;51.046;13.692;2023-05-21T16:25:15;32.00;24.60
70820;DHT22;58439;51.046;13.692;2023-05-21T16:27:42;32.20;24.20
70820;DHT22;58439;51.046;13.692;2023-05-21T16:30:10;32.30;23.80
70820;DHT22;58439;51.046;13.692;2023-05-21T16:32:38;32.00;23.70
70820;DHT22;58439;51.046;13.692;2023-05-21T16:35:06;31.80;24.00
70820;DHT22;58439;51.046;13.692;2023-05-21T16:37:33;31.90;24.00
70820;DHT22;58439;51.046;13.692;2023-05-21T16:40:07;31.90;24.90
70820;DHT22;58439;51.046;13.692;2023-05-21T16:43:52;32.00;24.00
70820;DHT22;58439;51.046;13.692;2023-05-21T16:46:22;31.60;24.30
70820;DHT22;58439;51.046;13.692;2023-05-21T16:49:28;31.00;24.80
70820;DHT22;58439;51.046;13.692;2023-05-21T16:51:56;30.40;25.80
70820;DHT22;58439;51.046;13.692;2023-05-21T16:54:26;30.40;26.00
70820;DHT22;58439;51.046;13.692;2023-05-21T16:56:54;30.50;25.90
70820;DHT22;58439;51.046;13.692;2023-05-21T16:59:22;30.50;25.60
70820;DHT22;58439;51.046;13.692;2023-05-21T17:01:49;30.20;25.70
70820;DHT22;58439;51.046;13.692;2023-05-21T17:04:17;29.80;25.90
70820;DHT22;58439;51.046;13.692;2023-05-21T17:06:44;29.20;25.80
70820;DHT22;58439;51.046;13.692;2023-05-21T17:09:12;28.80;26.50
70820;DHT22;58439;51.046;13.692;2023-05-21T17:16:33;28.50;26.90
70820;DHT22;58439;51.046;13.692;2023-05-21T17:20:04;28.20;27.00
70820;DHT22;58439;51.046;13.692;2023-05-21T17:29:10;27.50;28.00
70820;DHT22;58439;51.046;13.692;2023-05-21T17:33:26;27.10;28.50
70820;DHT22;58439;51.046;13.692;2023-05-21T17:37:18;26.90;29.20
70820;DHT22;58439;51.046;13.692;2023-05-21T17:39:47;26.60;29.60
70820;DHT22;58439;51.046;13.692;2023-05-21T17:42:42;26.40;29.80
70820;DHT22;58439;51.046;13.692;2023-05-21T17:46:04;26.30;30.10
70820;DHT22;58439;51.046;13.692;2023-05-21T17:48:31;26.20;30.40
70820;DHT22;58439;51.046;13.692;2023-05-21T17:51:00;26.10;30.50
70820;DHT22;58439;51.046;13.692;2023-05-21T17:57:57;25.90;30.30
70820;DHT22;58439;51.046;13.692;2023-05-21T18:02:19;25.70;30.70
70820;DHT22;58439;51.046;13.692;2023-05-21T18:15:51;25.40;31.10
70820;DHT22;58439;51.046;13.692;2023-05-21T18:19:17;24.60;34.20
70820;DHT22;58439;51.046;13.692;2023-05-21T18:23:11;24.30;34.50
70820;DHT22;58439;51.046;13.692;2023-05-21T18:25:39;24.20;35.30
70820;DHT22;58439;51.046;13.692;2023-05-21T18:28:07;24.10;35.40
70820;DHT22;58439;51.046;13.692;2023-05-21T18:30:35;24.00;36.10
70820;DHT22;58439;51.046;13.692;2023-05-21T18:33:03;23.80;36.50
70820;DHT22;58439;51.046;13.692;2023-05-21T18:35:30;23.70;36.90
70820;DHT22;58439;51.046;13.692;2023-05-21T18:53:54;23.10;38.80
70820;DHT22;58439;51.046;13.692;2023-05-21T18:58:26;23.00;39.20
70820;DHT22;58439;51.046;13.692;2023-05-21T19:08:17;22.70;40.40
70820;DHT22;58439;51.046;13.692;2023-05-21T19:21:30;22.30;42.00
70820;DHT22;58439;51.046;13.692;2023-05-21T19:36:37;21.90;43.20
70820;DHT22;58439;51.046;13.692;2023-05-21T19:39:57;21.80;43.70
70820;DHT22;58439;51.046;13.692;2023-05-21T19:42:24;21.80;44.00
70820;DHT22;58439;51.046;13.692;2023-05-21T19:44:52;21.80;44.10
70820;DHT22;58439;51.046;13.692;2023-05-21T19:47:20;21.70;44.20
70820;DHT22;58439;51.046;13.692;2023-05-21T19:49:47;21.70;44.40
70820;DHT22;58439;51.046;13.692;2023-05-21T19:52:14;21.60;44.60
70820;DHT22;58439;51.046;13.692;2023-05-21T19:54:41;21.60;44.80
70820;DHT22;58439;51.046;13.692;2023-05-21T19:57:16;21.60;45.00
70820;DHT22;58439;51.046;13.692;2023-05-21T20:00:33;21.50;45.10
70820;DHT22;58439;51.046;13.692;2023-05-21T20:03:36;21.40;45.40
70820;DHT22;58439;51.046;13.692;2023-05-21T20:06:04;21.30;45.80
70820;DHT22;58439;51.046;13.692;2023-05-21T20:08:31;21.30;46.00
70820;DHT22;58439;51.046;13.692;2023-05-21T20:10:59;21.30;46.70
70820;DHT22;58439;51.046;13.692;2023-05-21T20:13:26;21.30;47.20
70820;DHT22;58439;51.046;13.692;2023-05-21T20:16:19;21.20;47.40
70820;DHT22;58439;51.046;13.692;2023-05-21T20:19:09;21.10;48.40
70820;DHT22;58439;51.046;13.692;2023-05-21T20:21:37;21.10;49.10
70820;DHT22;58439;51.046;13.692;2023-05-21T20:24:04;21.00;49.90
70820;DHT22;58439;51.046;13.692;2023-05-21T20:26:32;20.90;50.70
70820;DHT22;58439;51.046;13.692;2023-05-21T20:29:00;20.80;52.00
70820;DHT22;58439;51.046;13.692;2023-05-21T20:31:28;20.70;53.60
70820;DHT22;58439;51.046;13.692;2023-05-21T20:37:29;20.50;57.60
70820;DHT22;58439;51.046;13.692;2023-05-21T20:40:20;20.40;58.80
70820;DHT22;58439;51.046;13.692;2023-05-21T20:43:33;20.40;60.50
70820;DHT22;58439;51.046;13.692;2023-05-21T20:46:17;20.30;61.90
70820;DHT22;58439;51.046;13.692;2023-05-21T20:48:46;20.30;62.80
70820;DHT22;58439;51.046;13.692;2023-05-21T20:51:15;20.30;63.60
70820;DHT22;58439;51.046;13.692;2023-05-21T20:53:42;20.20;64.30
70820;DHT22;58439;51.046;13.692;2023-05-21T20:56:09;20.10;66.00
70820;DHT22;58439;51.046;13.692;2023-05-21T20:58:37;19.90;67.40